createdAt,value
2018-04-10T00:01:32.023Z,15.30
2018-04-10T00:04:07.803Z,15.87
2018-04-10T00:06:42.525Z,18.17
2018-04-10T00:09:17.758Z,16.00
2018-04-10T00:11:53.919Z,16.30
2018-04-10T00:14:29.133Z,17.47
2018-04-10T00:17:03.474Z,14.10
2018-04-10T00:19:38.389Z,12.97
2018-04-10T00:22:13.533Z,17.80
2018-04-10T00:24:47.845Z,14.20
2018-04-10T00:27:22.888Z,12.73
2018-04-10T00:29:57.219Z,13.70
2018-04-10T00:32:31.126Z,15.17
2018-04-10T00:35:05.010Z,15.30
2018-04-10T00:37:40.766Z,11.03
2018-04-10T00:40:15.590Z,15.13
2018-04-10T00:42:51.453Z,15.80
2018-04-10T00:45:25.451Z,12.70
2018-04-10T00:48:00.696Z,14.30
2018-04-10T00:50:34.809Z,15.90
2018-04-10T00:53:21.412Z,15.80
2018-04-10T00:55:55.734Z,13.97
2018-04-10T00:58:30.654Z,15.77
2018-04-10T01:01:05.590Z,15.87
2018-04-10T01:03:40.900Z,13.33
2018-04-10T01:06:15.447Z,15.20
2018-04-10T01:08:50.176Z,13.30
2018-04-10T01:11:26.438Z,15.43
2018-04-10T01:14:01.879Z,14.40
2018-04-10T01:16:38.054Z,15.80
2018-04-10T01:19:12.171Z,13.00
2018-04-10T01:21:47.721Z,13.03
2018-04-10T01:24:22.598Z,11.87
2018-04-10T01:26:57.142Z,13.03
2018-04-10T01:29:32.284Z,11.93
2018-04-10T01:32:07.170Z,14.17
2018-04-10T01:34:43.074Z,15.77
2018-04-10T01:37:18.001Z,18.57
2018-04-10T01:39:53.243Z,20.47
2018-04-10T01:42:27.914Z,14.03
2018-04-10T01:45:02.496Z,12.43
2018-04-10T01:47:37.212Z,16.10
2018-04-10T01:50:13.164Z,13.10
2018-04-10T01:52:47.370Z,15.80
2018-04-10T01:55:22.409Z,12.83
2018-04-10T01:57:57.351Z,14.60
2018-04-10T02:00:32.064Z,14.63
2018-04-10T02:03:06.285Z,14.37
2018-04-10T02:05:40.402Z,15.60
2018-04-10T02:08:14.148Z,13.80
2018-04-10T02:10:49.452Z,15.13
2018-04-10T02:13:23.368Z,19.80
2018-04-10T02:15:58.076Z,14.67
2018-04-10T02:18:33.001Z,13.97
2018-04-10T02:21:09.479Z,15.30
2018-04-10T02:23:44.198Z,15.40
2018-04-10T02:26:19.005Z,14.40
2018-04-10T02:28:53.554Z,15.20
2018-04-10T02:31:27.765Z,16.47
2018-04-10T02:34:03.188Z,13.40
2018-04-10T02:36:39.463Z,13.23
2018-04-10T02:39:14.296Z,14.17
2018-04-10T02:41:50.259Z,15.53
2018-04-10T02:44:24.155Z,14.43
2018-04-10T02:46:57.955Z,15.33
2018-04-10T02:49:32.581Z,16.93
2018-04-10T02:52:06.910Z,17.57
2018-04-10T02:54:42.245Z,13.30
2018-04-10T02:57:18.200Z,13.00
2018-04-10T02:59:53.510Z,19.27
2018-04-10T03:02:29.596Z,16.23
2018-04-10T03:05:04.018Z,17.53
2018-04-10T03:07:39.179Z,14.90
2018-04-10T03:10:13.159Z,15.93
2018-04-10T03:12:47.071Z,12.20
2018-04-10T03:15:22.012Z,11.60
2018-04-10T03:17:56.819Z,12.63
2018-04-10T03:20:30.457Z,15.13
2018-04-10T03:23:05.747Z,11.20
2018-04-10T03:25:40.385Z,16.40
2018-04-10T03:28:15.527Z,12.57
2018-04-10T03:30:50.554Z,13.37
2018-04-10T03:33:24.679Z,12.93
2018-04-10T03:35:59.400Z,12.73
2018-04-10T03:38:33.203Z,13.33
2018-04-10T03:41:08.142Z,11.33
2018-04-10T03:43:41.931Z,12.93
2018-04-10T03:46:16.296Z,12.37
2018-04-10T03:48:50.881Z,11.67
2018-04-10T03:51:26.656Z,17.03
2018-04-10T03:54:01.655Z,14.10
2018-04-10T03:56:35.669Z,13.07
2018-04-10T03:59:10.301Z,10.20
2018-04-10T04:01:45.025Z,12.87
2018-04-10T04:04:20.768Z,13.07
2018-04-10T04:06:55.909Z,12.10
2018-04-10T04:09:29.815Z,13.33
2018-04-10T04:12:03.724Z,13.33
2018-04-10T04:14:38.034Z,13.53
2018-04-10T04:17:24.026Z,16.33
2018-04-10T04:20:11.467Z,14.67
2018-04-10T04:22:47.370Z,13.17
2018-04-10T04:25:22.024Z,16.63
2018-04-10T04:27:56.357Z,12.97
2018-04-10T04:30:30.970Z,17.97
2018-04-10T04:33:06.617Z,13.77
2018-04-10T04:35:40.630Z,14.53
2018-04-10T04:38:16.430Z,14.87
2018-04-10T04:40:49.978Z,11.87
2018-04-10T04:43:25.908Z,11.57
2018-04-10T04:46:00.355Z,12.53
2018-04-10T04:48:35.384Z,14.33
2018-04-10T04:51:10.098Z,13.63
2018-04-10T05:06:51.573Z,11.40
2018-04-10T05:09:26.967Z,14.57
2018-04-10T05:12:00.830Z,17.80
2018-04-10T05:14:35.450Z,12.10
2018-04-10T05:17:09.386Z,16.20
2018-04-10T05:19:43.886Z,14.20
2018-04-10T05:22:17.589Z,14.47
2018-04-10T05:24:52.533Z,14.43
2018-04-10T05:27:27.762Z,16.40
2018-04-10T05:30:01.461Z,15.07
2018-04-10T05:32:35.078Z,15.57
2018-04-10T05:35:08.855Z,14.90
2018-04-10T05:37:43.390Z,20.93
2018-04-10T05:40:18.905Z,19.70
2018-04-10T05:42:53.456Z,19.00
2018-04-10T05:45:28.403Z,21.73
2018-04-10T05:48:01.898Z,16.23
2018-04-10T05:50:36.298Z,18.33
2018-04-10T05:53:10.885Z,14.93
2018-04-10T05:55:44.728Z,19.97
2018-04-10T05:58:19.941Z,15.20
2018-04-10T06:00:53.666Z,19.67
2018-04-10T06:03:27.864Z,13.90
2018-04-10T06:06:01.507Z,17.40
2018-04-10T06:08:35.595Z,16.27
2018-04-10T06:11:11.509Z,17.17
2018-04-10T06:13:45.520Z,15.93
2018-04-10T06:16:20.175Z,17.00
2018-04-10T06:18:53.967Z,13.60
2018-04-10T06:21:28.731Z,18.20
2018-04-10T06:24:02.699Z,18.13
2018-04-10T06:26:37.707Z,14.80
2018-04-10T06:29:12.251Z,19.13
2018-04-10T06:31:47.555Z,18.43
2018-04-10T06:34:21.374Z,17.60
2018-04-10T06:36:55.535Z,17.17
2018-04-10T06:39:30.060Z,18.77
2018-04-10T06:42:03.939Z,12.67
2018-04-10T06:44:38.457Z,16.37
2018-04-10T06:47:13.083Z,15.60
2018-04-10T06:49:46.823Z,15.73
2018-04-10T06:52:20.497Z,15.13
2018-04-10T06:54:54.909Z,19.17
2018-04-10T06:57:29.735Z,17.27
2018-04-10T07:00:04.278Z,16.37
2018-04-10T07:02:39.327Z,15.90
2018-04-10T07:05:13.219Z,14.03
2018-04-10T07:07:48.025Z,17.13
2018-04-10T07:10:22.570Z,16.90
2018-04-10T07:12:57.197Z,15.17
2018-04-10T07:15:31.995Z,18.03
2018-04-10T07:18:07.183Z,19.27
2018-04-10T07:20:40.950Z,19.20
2018-04-10T07:23:15.750Z,19.93
2018-04-10T07:25:50.116Z,15.40
2018-04-10T07:28:23.604Z,12.97
2018-04-10T07:30:59.119Z,17.73
2018-04-10T07:33:32.995Z,18.70
2018-04-10T07:36:06.837Z,17.63
2018-04-10T07:38:41.354Z,18.53
2018-04-10T07:41:15.908Z,18.17
2018-04-10T07:43:50.587Z,19.57
2018-04-10T07:46:24.409Z,16.03
2018-04-10T07:48:58.678Z,18.23
2018-04-10T07:51:33.246Z,13.93
2018-04-10T07:54:08.498Z,21.00
2018-04-10T07:56:42.995Z,19.30
2018-04-10T07:59:16.690Z,18.60
2018-04-10T08:01:51.357Z,21.87
2018-04-10T08:04:25.317Z,20.63
2018-04-10T08:06:59.471Z,17.73
2018-04-10T08:09:34.318Z,19.17
2018-04-10T08:12:09.206Z,24.70
2018-04-10T08:14:43.036Z,17.37
2018-04-10T08:17:17.565Z,13.83
2018-04-10T08:19:52.845Z,16.30
2018-04-10T08:22:27.314Z,17.80
2018-04-10T08:25:02.243Z,21.87
2018-04-10T08:27:36.040Z,19.67
2018-04-10T08:30:09.926Z,14.80
2018-04-10T08:32:44.667Z,14.47
2018-04-10T08:35:18.439Z,14.03
2018-04-10T08:37:52.127Z,15.13
2018-04-10T08:40:26.671Z,14.60
2018-04-10T08:43:01.447Z,12.20
2018-04-10T08:45:35.910Z,14.40
2018-04-10T08:48:10.345Z,13.70
2018-04-10T08:50:44.377Z,13.13
2018-04-10T08:53:18.197Z,14.10
2018-04-10T08:55:52.920Z,12.90
2018-04-10T08:58:27.001Z,19.27
2018-04-10T09:01:01.115Z,11.47
2018-04-10T09:03:34.822Z,12.10
2018-04-10T09:06:09.315Z,12.37
2018-04-10T09:08:43.868Z,14.90
2018-04-10T09:11:17.676Z,9.70
2018-04-10T09:13:51.398Z,13.77
2018-04-10T09:16:25.402Z,14.60
2018-04-10T09:19:00.333Z,12.47
2018-04-10T09:21:34.122Z,11.43
2018-04-10T09:24:08.281Z,10.17
2018-04-10T09:26:42.053Z,11.77
2018-04-10T09:29:15.992Z,9.30
2018-04-10T09:31:50.795Z,9.57
2018-04-10T09:34:24.911Z,8.30
2018-04-10T09:36:58.584Z,7.77
2018-04-10T09:39:32.296Z,8.80
2018-04-10T09:42:06.913Z,13.17
2018-04-10T09:44:41.020Z,6.60
2018-04-10T09:47:14.813Z,7.10
2018-04-10T09:49:50.677Z,7.50
2018-04-10T09:52:24.403Z,5.50
2018-04-10T09:54:59.326Z,9.13
2018-04-10T09:57:33.826Z,8.63
2018-04-10T10:00:09.178Z,5.50
2018-04-10T10:02:43.714Z,6.77
2018-04-10T10:05:18.452Z,5.67
2018-04-10T10:07:52.285Z,5.80
2018-04-10T10:10:27.372Z,6.83
2018-04-10T10:13:01.460Z,6.30
2018-04-10T10:15:36.311Z,8.27
2018-04-10T10:18:09.996Z,7.53
2018-04-10T10:20:44.193Z,9.40
2018-04-10T10:23:18.957Z,9.43
2018-04-10T10:25:53.781Z,10.60
2018-04-10T10:28:28.412Z,9.77
2018-04-10T10:31:02.935Z,9.07
2018-04-10T10:33:37.353Z,10.13
2018-04-10T10:36:11.259Z,10.83
2018-04-10T10:38:46.485Z,10.50
2018-04-10T10:41:21.235Z,12.37
2018-04-10T10:43:55.121Z,9.50
2018-04-10T10:46:30.249Z,12.80
2018-04-10T10:49:05.089Z,12.33
2018-04-10T10:51:40.119Z,10.53
2018-04-10T10:54:13.749Z,11.80
2018-04-10T10:56:48.238Z,9.37
2018-04-10T10:59:22.755Z,12.90
2018-04-10T11:01:57.452Z,13.50
2018-04-10T11:04:31.799Z,12.50
2018-04-10T11:07:06.724Z,14.53
2018-04-10T11:09:41.721Z,10.77
2018-04-10T11:12:16.203Z,9.60
2018-04-10T11:14:50.006Z,12.07
2018-04-10T11:17:24.754Z,10.03
2018-04-10T11:19:59.797Z,11.70
2018-04-10T11:22:33.546Z,10.23
2018-04-10T11:25:08.272Z,11.67
2018-04-10T11:27:42.979Z,12.53
2018-04-10T11:30:18.139Z,9.53
2018-04-10T11:32:53.093Z,15.07
2018-04-10T11:35:28.289Z,9.70
2018-04-10T11:38:02.017Z,9.00
2018-04-10T11:40:38.274Z,10.97
2018-04-10T11:43:11.880Z,8.53
2018-04-10T11:45:46.811Z,13.97
2018-04-10T11:48:21.433Z,12.43
2018-04-10T11:50:55.221Z,9.67
2018-04-10T11:53:29.575Z,9.63
2018-04-10T11:56:03.384Z,10.80
2018-04-10T11:58:38.686Z,9.93
2018-04-10T12:01:13.203Z,9.50
2018-04-10T12:03:48.422Z,9.27
2018-04-10T12:06:23.178Z,13.20
2018-04-10T12:08:58.188Z,12.80
2018-04-10T12:11:31.925Z,10.80
2018-04-10T12:14:05.700Z,12.43
2018-04-10T12:16:40.323Z,10.60
2018-04-10T12:19:14.771Z,12.03
2018-04-10T12:21:49.667Z,9.33
2018-04-10T12:24:23.675Z,12.33
2018-04-10T12:26:59.733Z,10.07
2018-04-10T12:29:33.568Z,12.00
2018-04-10T12:32:08.381Z,14.70
2018-04-10T12:34:42.085Z,11.33
2018-04-10T12:37:15.888Z,13.23
2018-04-10T12:39:49.901Z,11.17
2018-04-10T12:42:23.509Z,13.90
2018-04-10T12:44:57.523Z,11.83
2018-04-10T12:47:31.488Z,13.27
2018-04-10T12:50:05.642Z,11.23
2018-04-10T12:52:40.477Z,13.67
2018-04-10T12:55:14.519Z,11.43
2018-04-10T12:57:49.215Z,14.87
2018-04-10T13:00:27.734Z,11.03
2018-04-10T13:03:01.459Z,12.20
2018-04-10T13:05:37.048Z,10.23
2018-04-10T13:08:11.799Z,11.70
2018-04-10T13:10:45.764Z,11.67
2018-04-10T13:13:21.024Z,11.30
2018-04-10T13:15:55.667Z,10.77
2018-04-10T13:18:30.465Z,11.47
2018-04-10T13:21:05.303Z,13.07
2018-04-10T13:23:39.991Z,10.70
2018-04-10T13:26:13.985Z,10.63
2018-04-10T13:28:47.939Z,11.10
2018-04-10T13:31:22.470Z,14.83
2018-04-10T13:33:56.928Z,12.47
2018-04-10T13:36:31.660Z,11.50
2018-04-10T13:39:05.726Z,10.50
2018-04-10T13:41:40.247Z,15.00
2018-04-10T13:44:14.871Z,12.10
2018-04-10T13:46:48.611Z,13.87
2018-04-10T13:49:22.292Z,11.97
2018-04-10T13:51:57.169Z,10.30
2018-04-10T13:54:32.356Z,11.97
2018-04-10T13:57:06.996Z,11.90
2018-04-10T13:59:41.536Z,9.40
2018-04-10T14:02:15.725Z,10.37
2018-04-10T14:04:51.159Z,10.50
2018-04-10T14:07:26.267Z,13.93
2018-04-10T14:10:00.126Z,20.20
2018-04-10T14:12:34.079Z,12.63
2018-04-10T14:15:08.661Z,12.07
2018-04-10T14:17:43.393Z,12.97
2018-04-10T14:20:17.178Z,12.03
2018-04-10T14:22:50.816Z,12.33
2018-04-10T14:25:24.894Z,16.30
2018-04-10T14:27:58.571Z,14.10
2018-04-10T14:30:32.693Z,12.63
2018-04-10T14:33:06.391Z,11.90
2018-04-10T14:35:40.446Z,14.60
2018-04-10T14:38:14.617Z,18.90
2018-04-10T14:40:48.304Z,16.17
2018-04-10T14:43:22.873Z,12.27
2018-04-10T14:45:56.442Z,13.33
2018-04-10T14:48:31.755Z,15.53
2018-04-10T14:51:05.881Z,15.33
2018-04-10T14:53:40.994Z,15.13
2018-04-10T14:56:14.730Z,15.70
2018-04-10T14:58:49.132Z,14.37
2018-04-10T15:01:23.986Z,16.07
2018-04-10T15:03:57.757Z,14.67
2018-04-10T15:06:31.438Z,14.63
2018-04-10T15:09:05.703Z,16.53
2018-04-10T15:11:40.670Z,15.23
2018-04-10T15:14:15.036Z,17.27
2018-04-10T15:16:49.943Z,14.60
2018-04-10T15:19:24.373Z,19.53
2018-04-10T15:21:59.109Z,14.93
2018-04-10T15:24:33.589Z,18.53
2018-04-10T15:27:08.983Z,15.60
2018-04-10T15:29:43.372Z,14.13
2018-04-10T15:32:18.166Z,14.97
2018-04-10T15:34:52.005Z,11.30
2018-04-10T15:37:26.082Z,11.87
2018-04-10T15:40:00.877Z,12.87
2018-04-10T15:42:34.751Z,8.60
2018-04-10T15:45:10.943Z,9.40
2018-04-10T15:47:45.763Z,12.03
2018-04-10T15:50:19.878Z,15.97
2018-04-10T15:52:53.865Z,7.90
2018-04-10T15:55:29.067Z,3.83
2018-04-10T15:58:03.133Z,5.07
2018-04-10T16:00:37.974Z,6.10
2018-04-10T16:03:12.811Z,10.50
2018-04-10T16:05:47.502Z,4.30
2018-04-10T16:08:22.027Z,5.37
2018-04-10T16:10:55.993Z,4.60
2018-04-10T16:13:31.667Z,7.07
2018-04-10T16:16:06.423Z,10.30
2018-04-10T16:18:41.139Z,11.10
2018-04-10T16:21:15.341Z,7.73
2018-04-10T16:23:49.331Z,6.47
2018-04-10T16:26:24.011Z,6.93
2018-04-10T16:28:59.386Z,6.33
2018-04-10T16:31:34.849Z,10.73
2018-04-10T16:34:09.802Z,8.10
2018-04-10T16:36:44.389Z,9.13
2018-04-10T16:39:19.226Z,5.90
2018-04-10T16:41:54.898Z,5.60
2018-04-10T16:44:29.950Z,7.80
2018-04-10T16:47:03.845Z,10.77
2018-04-10T16:49:37.769Z,8.07
2018-04-10T16:52:12.591Z,5.27
2018-04-10T16:54:47.501Z,6.80
2018-04-10T16:57:21.274Z,6.43
2018-04-10T16:59:55.368Z,6.13
2018-04-10T17:02:29.326Z,6.70
2018-04-10T17:05:04.178Z,9.60
2018-04-10T17:07:38.043Z,6.13
2018-04-10T17:10:12.863Z,6.23
2018-04-10T17:12:46.914Z,8.37
2018-04-10T17:15:22.166Z,6.60
2018-04-10T17:17:56.866Z,10.27
2018-04-10T17:20:30.533Z,7.30
2018-04-10T17:23:04.092Z,9.60
2018-04-10T17:25:37.902Z,7.50
2018-04-10T17:28:11.757Z,8.13
2018-04-10T17:30:46.224Z,6.73
2018-04-10T17:33:20.570Z,6.63
2018-04-10T17:35:54.502Z,8.60
2018-04-10T17:38:29.988Z,8.57
2018-04-10T17:41:04.490Z,7.33
2018-04-10T17:43:38.709Z,8.50
2018-04-10T17:46:14.146Z,7.37
2018-04-10T17:48:48.582Z,7.67
2018-04-10T17:51:22.597Z,8.87
2018-04-10T17:53:57.524Z,8.17
2018-04-10T17:56:31.631Z,5.97
2018-04-10T17:59:07.063Z,6.43
2018-04-10T18:01:41.895Z,6.47
2018-04-10T18:04:16.235Z,6.77
2018-04-10T18:06:51.671Z,7.40
2018-04-10T18:09:26.376Z,6.10
2018-04-10T18:12:01.510Z,7.50
2018-04-10T18:14:36.238Z,8.33
2018-04-10T18:17:09.926Z,7.60
2018-04-10T18:19:44.869Z,12.73
2018-04-10T18:22:19.387Z,7.53
2018-04-10T18:24:53.838Z,5.37
2018-04-10T18:27:28.133Z,6.07
2018-04-10T18:30:02.652Z,4.17
2018-04-10T18:32:36.339Z,4.17
2018-04-10T18:35:10.868Z,4.50
2018-04-10T18:37:44.982Z,4.80
2018-04-10T18:40:18.891Z,5.90
2018-04-10T18:42:53.350Z,3.80
2018-04-10T18:45:27.895Z,3.83
2018-04-10T18:48:01.717Z,4.73
2018-04-10T18:50:36.531Z,4.63
2018-04-10T18:53:10.767Z,6.93
2018-04-10T18:55:45.426Z,3.80
2018-04-10T18:58:19.594Z,3.90
2018-04-10T19:00:54.384Z,4.40
2018-04-10T19:03:28.454Z,6.63
2018-04-10T19:06:03.193Z,4.47
2018-04-10T19:08:37.611Z,5.40
2018-04-10T19:11:12.739Z,5.60
2018-04-10T19:13:46.864Z,4.63
2018-04-10T19:16:21.055Z,5.97
2018-04-10T19:18:55.054Z,6.13
2018-04-10T19:21:29.193Z,5.10
2018-04-10T19:24:03.725Z,3.57
2018-04-10T19:26:38.124Z,4.00
2018-04-10T19:29:12.625Z,3.40
2018-04-10T19:31:47.268Z,3.77
2018-04-10T19:34:21.876Z,4.03
2018-04-10T19:36:55.548Z,4.10
2018-04-10T19:39:30.134Z,5.93
2018-04-10T19:42:05.776Z,3.20
2018-04-10T19:44:42.637Z,4.60
2018-04-10T19:47:18.150Z,3.13
2018-04-10T19:49:52.097Z,2.40
2018-04-10T19:52:27.451Z,2.53
2018-04-10T19:55:02.578Z,3.20
2018-04-10T19:57:38.633Z,2.60
2018-04-10T20:00:12.968Z,3.23
2018-04-10T20:02:51.184Z,2.70
2018-04-10T20:05:25.480Z,2.83
2018-04-10T20:08:00.700Z,4.03
2018-04-10T20:10:34.882Z,4.10
2018-04-10T20:13:10.865Z,2.83
2018-04-10T20:15:45.606Z,2.30
2018-04-10T20:18:19.517Z,3.63
2018-04-10T20:20:53.768Z,2.60
2018-04-10T20:23:30.310Z,2.40
2018-04-10T20:26:08.051Z,2.60
2018-04-10T20:28:41.746Z,2.30
2018-04-10T20:31:15.996Z,2.80
2018-04-10T20:33:49.917Z,2.50
2018-04-10T20:36:23.907Z,2.73
2018-04-10T20:38:58.817Z,2.67
2018-04-10T20:41:32.560Z,2.67
2018-04-10T20:44:06.973Z,2.20
2018-04-10T20:46:41.184Z,2.50
2018-04-10T20:49:15.920Z,2.40
2018-04-10T20:51:50.848Z,3.03
2018-04-10T20:54:25.842Z,2.03
2018-04-10T20:57:00.415Z,2.17
2018-04-10T20:59:34.203Z,2.33
2018-04-10T21:02:09.964Z,2.10
2018-04-10T21:04:44.463Z,2.40
2018-04-10T21:07:18.443Z,2.00
2018-04-10T21:09:53.435Z,3.47
2018-04-10T21:12:28.473Z,2.30
2018-04-10T21:15:03.067Z,2.33
2018-04-10T21:17:39.160Z,2.87
2018-04-10T21:20:13.567Z,2.13
2018-04-10T21:22:48.802Z,2.80
2018-04-10T21:25:24.349Z,2.60
2018-04-10T21:27:58.457Z,2.70
2018-04-10T21:30:32.213Z,2.70
2018-04-10T21:33:07.000Z,2.60
2018-04-10T21:35:41.379Z,2.33
2018-04-10T21:38:16.818Z,3.40
2018-04-10T21:40:51.669Z,2.57
2018-04-10T21:43:30.847Z,2.37
2018-04-10T21:46:04.692Z,2.97
2018-04-10T21:48:38.832Z,2.50
2018-04-10T21:51:12.832Z,2.97
2018-04-10T21:53:48.072Z,2.90
2018-04-10T21:56:21.684Z,3.93
2018-04-10T21:58:55.982Z,3.30
2018-04-10T22:01:30.392Z,2.83
2018-04-10T22:04:04.119Z,2.47
2018-04-10T22:06:38.506Z,4.00
2018-04-10T22:09:12.417Z,3.17
2018-04-10T22:11:46.231Z,3.10
2018-04-10T22:14:21.069Z,2.70
2018-04-10T22:16:56.032Z,3.57
2018-04-10T22:19:30.528Z,2.97
2018-04-10T22:22:04.215Z,3.10
2018-04-10T22:24:38.350Z,3.33
2018-04-10T22:27:13.732Z,3.93
2018-04-10T22:29:47.891Z,4.67
2018-04-10T22:32:21.779Z,3.53
2018-04-10T22:34:56.156Z,4.20
2018-04-10T22:37:30.316Z,3.43
2018-04-10T22:40:05.142Z,3.90
2018-04-10T22:42:39.951Z,3.80
2018-04-10T22:45:14.051Z,4.03
2018-04-10T22:47:48.972Z,4.10
2018-04-10T22:50:22.704Z,4.23
2018-04-10T22:52:57.631Z,4.53
2018-04-10T22:55:31.957Z,4.57
2018-04-10T22:58:05.834Z,4.77
2018-04-10T23:00:42.636Z,5.97
2018-04-10T23:03:18.399Z,4.90
2018-04-10T23:05:52.389Z,5.10
2018-04-10T23:08:27.431Z,6.67
2018-04-10T23:11:01.601Z,6.20
2018-04-10T23:13:35.537Z,5.57
2018-04-10T23:16:11.535Z,6.70
2018-04-10T23:18:45.534Z,6.27
2018-04-10T23:21:21.109Z,5.90
2018-04-10T23:23:56.171Z,7.37
2018-04-10T23:26:30.604Z,8.63
2018-04-10T23:29:05.348Z,8.70
2018-04-10T23:31:40.417Z,8.80
2018-04-10T23:34:14.414Z,9.30
2018-04-10T23:36:49.196Z,9.90
2018-04-10T23:39:23.261Z,7.77
2018-04-10T23:41:57.581Z,10.37
2018-04-10T23:44:32.214Z,9.50
2018-04-10T23:47:08.150Z,9.40
2018-04-10T23:49:42.160Z,10.17
2018-04-10T23:52:16.873Z,8.67
2018-04-10T23:54:51.859Z,9.03
2018-04-10T23:57:25.889Z,8.70
